sensor_id;sensor_type;location;lat;lon;timestamp;pressure;altitude;pressure_sealevel;temperature;humidity
31331;BME280;34067;39.548;-76.088;2023-05-29T00:01:37;101508.32;;;26.74;33.84
31331;BME280;34067;39.548;-76.088;2023-05-29T00:04:05;101508.83;;;26.68;34.26
31331;BME280;34067;39.548;-76.088;2023-05-29T00:06:32;101508.82;;;26.08;34.43
31331;BME280;34067;39.548;-76.088;2023-05-29T00:09:01;101506.51;;;26.68;34.75
31331;BME280;34067;39.548;-76.088;2023-05-29T00:11:28;101505.72;;;25.76;35.75
31331;BME280;34067;39.548;-76.088;2023-05-29T00:13:56;101509.56;;;26.40;35.43
31331;BME280;34067;39.548;-76.088;2023-05-29T00:16:24;101509.74;;;26.30;35.47
31331;BME280;34067;39.548;-76.088;2023-05-29T00:18:52;101509.03;;;26.36;35.67
31331;BME280;34067;39.548;-76.088;2023-05-29T00:21:19;101508.80;;;26.42;35.94
31331;BME280;34067;39.548;-76.088;2023-05-29T00:23:48;101507.86;;;26.32;36.62
31331;BME280;34067;39.548;-76.088;2023-05-29T00:26:15;101510.64;;;26.00;37.71
31331;BME280;34067;39.548;-76.088;2023-05-29T00:28:43;101513.83;;;25.86;38.31
31331;BME280;34067;39.548;-76.088;2023-05-29T00:31:11;101517.98;;;25.63;38.76
31331;BME280;34067;39.548;-76.088;2023-05-29T00:33:39;101516.33;;;25.36;39.88
31331;BME280;34067;39.548;-76.088;2023-05-29T00:36:07;101516.64;;;25.31;40.14
31331;BME280;34067;39.548;-76.088;2023-05-29T00:38:36;101514.71;;;25.52;40.19
31331;BME280;34067;39.548;-76.088;2023-05-29T00:41:04;101513.29;;;25.60;40.59
31331;BME280;34067;39.548;-76.088;2023-05-29T00:43:32;101512.26;;;25.03;40.44
31331;BME280;34067;39.548;-76.088;2023-05-29T00:45:59;101510.05;;;25.65;40.88
31331;BME280;34067;39.548;-76.088;2023-05-29T00:48:27;101509.35;;;25.40;41.38
31331;BME280;34067;39.548;-76.088;2023-05-29T00:50:56;101508.44;;;25.00;41.96
31331;BME280;34067;39.548;-76.088;2023-05-29T00:53:23;101509.94;;;24.90;41.35
31331;BME280;34067;39.548;-76.088;2023-05-29T00:55:52;101509.79;;;24.95;41.36
31331;BME280;34067;39.548;-76.088;2023-05-29T00:58:20;101507.82;;;24.96;42.36
31331;BME280;34067;39.548;-76.088;2023-05-29T01:00:49;101506.66;;;24.78;42.05
31331;BME280;34067;39.548;-76.088;2023-05-29T01:03:17;101506.01;;;24.95;42.39
31331;BME280;34067;39.548;-76.088;2023-05-29T01:05:45;101509.00;;;24.34;43.04
31331;BME280;34067;39.548;-76.088;2023-05-29T01:08:13;101509.18;;;24.60;43.17
31331;BME280;34067;39.548;-76.088;2023-05-29T01:10:41;101507.98;;;24.90;42.28
31331;BME280;34067;39.548;-76.088;2023-05-29T01:13:13;101509.02;;;24.66;42.82
31331;BME280;34067;39.548;-76.088;2023-05-29T01:15:49;101509.90;;;24.74;42.58
31331;BME280;34067;39.548;-76.088;2023-05-29T01:18:31;101511.56;;;24.50;43.05
31331;BME280;34067;39.548;-76.088;2023-05-29T01:21:06;101510.80;;;24.27;43.12
31331;BME280;34067;39.548;-76.088;2023-05-29T01:23:53;101514.21;;;24.17;43.60
31331;BME280;34067;39.548;-76.088;2023-05-29T01:26:35;101514.66;;;24.16;43.71
31331;BME280;34067;39.548;-76.088;2023-05-29T01:29:07;101514.42;;;24.20;44.14
31331;BME280;34067;39.548;-76.088;2023-05-29T01:31:36;101521.64;;;23.44;44.41
31331;BME280;34067;39.548;-76.088;2023-05-29T01:34:04;101524.11;;;23.71;45.49
31331;BME280;34067;39.548;-76.088;2023-05-29T01:36:32;101525.19;;;23.35;45.42
31331;BME280;34067;39.548;-76.088;2023-05-29T01:39:01;101529.35;;;23.78;46.04
31331;BME280;34067;39.548;-76.088;2023-05-29T01:41:29;101530.92;;;24.04;46.97
31331;BME280;34067;39.548;-76.088;2023-05-29T01:44:00;101528.49;;;24.46;45.34
31331;BME280;34067;39.548;-76.088;2023-05-29T01:46:28;101528.60;;;24.05;44.51
31331;BME280;34067;39.548;-76.088;2023-05-29T01:48:56;101530.47;;;23.60;46.04
31331;BME280;34067;39.548;-76.088;2023-05-29T01:51:24;101532.24;;;24.18;44.66
31331;BME280;34067;39.548;-76.088;2023-05-29T01:53:51;101533.24;;;23.07;46.36
31331;BME280;34067;39.548;-76.088;2023-05-29T01:56:19;101529.31;;;22.91;45.11
31331;BME280;34067;39.548;-76.088;2023-05-29T01:58:48;101529.61;;;23.12;45.48
31331;BME280;34067;39.548;-76.088;2023-05-29T02:01:16;101530.10;;;23.84;45.61
31331;BME280;34067;39.548;-76.088;2023-05-29T02:03:44;101532.80;;;23.71;45.31
31331;BME280;34067;39.548;-76.088;2023-05-29T02:06:12;101536.04;;;23.82;46.85
31331;BME280;34067;39.548;-76.088;2023-05-29T02:08:40;101537.08;;;23.61;47.45
31331;BME280;34067;39.548;-76.088;2023-05-29T02:11:08;101537.36;;;23.22;47.67
31331;BME280;34067;39.548;-76.088;2023-05-29T02:13:36;101539.71;;;23.51;46.76
31331;BME280;34067;39.548;-76.088;2023-05-29T02:16:04;101543.26;;;22.80;48.00
31331;BME280;34067;39.548;-76.088;2023-05-29T02:18:32;101545.06;;;23.00;48.86
31331;BME280;34067;39.548;-76.088;2023-05-29T02:21:01;101546.22;;;21.73;51.47
31331;BME280;34067;39.548;-76.088;2023-05-29T02:23:28;101544.94;;;22.07;52.98
31331;BME280;34067;39.548;-76.088;2023-05-29T02:25:56;101542.53;;;22.69;53.48
31331;BME280;34067;39.548;-76.088;2023-05-29T02:28:24;101545.18;;;21.87;54.97
31331;BME280;34067;39.548;-76.088;2023-05-29T02:30:52;101550.12;;;21.57;58.39
31331;BME280;34067;39.548;-76.088;2023-05-29T02:33:20;101549.66;;;21.13;58.43
31331;BME280;34067;39.548;-76.088;2023-05-29T02:35:48;101547.09;;;21.53;57.37
31331;BME280;34067;39.548;-76.088;2023-05-29T02:38:17;101545.43;;;21.41;57.86
31331;BME280;34067;39.548;-76.088;2023-05-29T02:40:44;101542.06;;;22.41;55.99
31331;BME280;34067;39.548;-76.088;2023-05-29T02:43:13;101540.65;;;21.86;55.14
31331;BME280;34067;39.548;-76.088;2023-05-29T02:45:41;101541.59;;;20.55;57.26
31331;BME280;34067;39.548;-76.088;2023-05-29T02:48:09;101540.50;;;21.46;56.88
31331;BME280;34067;39.548;-76.088;2023-05-29T02:50:37;101535.51;;;22.35;55.84
31331;BME280;34067;39.548;-76.088;2023-05-29T02:53:06;101534.62;;;22.06;55.10
31331;BME280;34067;39.548;-76.088;2023-05-29T02:55:34;101538.31;;;21.49;54.35
31331;BME280;34067;39.548;-76.088;2023-05-29T02:58:01;101539.82;;;21.18;55.34
31331;BME280;34067;39.548;-76.088;2023-05-29T03:00:29;101539.78;;;21.80;56.43
31331;BME280;34067;39.548;-76.088;2023-05-29T03:02:57;101535.17;;;21.56;56.54
31331;BME280;34067;39.548;-76.088;2023-05-29T03:05:25;101534.73;;;21.60;58.77
31331;BME280;34067;39.548;-76.088;2023-05-29T03:07:53;101533.98;;;21.69;59.56
31331;BME280;34067;39.548;-76.088;2023-05-29T03:10:21;101536.89;;;21.64;59.80
31331;BME280;34067;39.548;-76.088;2023-05-29T03:12:48;101533.71;;;21.74;58.96
31331;BME280;34067;39.548;-76.088;2023-05-29T03:15:16;101530.53;;;22.32;56.92
31331;BME280;34067;39.548;-76.088;2023-05-29T03:17:44;101526.62;;;22.00;53.82
31331;BME280;34067;39.548;-76.088;2023-05-29T03:20:12;101522.26;;;22.72;52.66
31331;BME280;34067;39.548;-76.088;2023-05-29T03:22:40;101519.67;;;22.10;52.69
31331;BME280;34067;39.548;-76.088;2023-05-29T03:25:09;101522.38;;;22.33;53.19
31331;BME280;34067;39.548;-76.088;2023-05-29T03:27:37;101521.69;;;22.42;52.75
31331;BME280;34067;39.548;-76.088;2023-05-29T03:30:06;101524.21;;;22.10;54.00
31331;BME280;34067;39.548;-76.088;2023-05-29T03:32:34;101522.43;;;22.08;53.31
31331;BME280;34067;39.548;-76.088;2023-05-29T03:35:02;101516.41;;;22.19;51.44
31331;BME280;34067;39.548;-76.088;2023-05-29T03:37:30;101518.30;;;22.35;53.28
31331;BME280;34067;39.548;-76.088;2023-05-29T03:39:58;101513.07;;;21.91;52.12
31331;BME280;34067;39.548;-76.088;2023-05-29T03:42:26;101512.60;;;22.40;52.81
31331;BME280;34067;39.548;-76.088;2023-05-29T03:44:54;101512.61;;;22.41;53.35
31331;BME280;34067;39.548;-76.088;2023-05-29T03:47:22;101514.78;;;21.93;53.32
31331;BME280;34067;39.548;-76.088;2023-05-29T03:49:50;101514.28;;;22.65;52.79
31331;BME280;34067;39.548;-76.088;2023-05-29T03:52:18;101513.00;;;21.49;56.48
31331;BME280;34067;39.548;-76.088;2023-05-29T03:54:45;101507.28;;;21.82;57.90
31331;BME280;34067;39.548;-76.088;2023-05-29T03:57:13;101504.53;;;21.58;58.75
31331;BME280;34067;39.548;-76.088;2023-05-29T03:59:41;101499.93;;;21.36;57.54
31331;BME280;34067;39.548;-76.088;2023-05-29T04:02:09;101498.18;;;21.50;60.22
31331;BME280;34067;39.548;-76.088;2023-05-29T04:04:37;101500.87;;;21.93;60.95
31331;BME280;34067;39.548;-76.088;2023-05-29T04:07:06;101498.37;;;21.80;60.19
31331;BME280;34067;39.548;-76.088;2023-05-29T04:09:34;101493.78;;;20.99;60.44
31331;BME280;34067;39.548;-76.088;2023-05-29T04:12:02;101490.76;;;21.57;60.33
31331;BME280;34067;39.548;-76.088;2023-05-29T04:14:29;101489.59;;;21.08;63.87
31331;BME280;34067;39.548;-76.088;2023-05-29T04:16:57;101491.02;;;20.87;66.52
31331;BME280;34067;39.548;-76.088;2023-05-29T04:19:25;101492.28;;;20.52;66.06
31331;BME280;34067;39.548;-76.088;2023-05-29T04:21:53;101489.90;;;20.26;67.50
31331;BME280;34067;39.548;-76.088;2023-05-29T04:24:21;101495.07;;;19.70;71.14
31331;BME280;34067;39.548;-76.088;2023-05-29T04:26:49;101493.10;;;19.64;71.49
31331;BME280;34067;39.548;-76.088;2023-05-29T04:29:17;101487.37;;;20.24;70.89
31331;BME280;34067;39.548;-76.088;2023-05-29T04:31:45;101481.87;;;20.74;69.04
31331;BME280;34067;39.548;-76.088;2023-05-29T04:34:13;101480.37;;;20.66;66.10
31331;BME280;34067;39.548;-76.088;2023-05-29T04:36:40;101476.10;;;21.47;62.22
31331;BME280;34067;39.548;-76.088;2023-05-29T04:39:09;101472.44;;;21.15;60.45
31331;BME280;34067;39.548;-76.088;2023-05-29T04:41:37;101468.30;;;20.55;59.98
31331;BME280;34067;39.548;-76.088;2023-05-29T04:44:06;101466.47;;;21.21;60.68
31331;BME280;34067;39.548;-76.088;2023-05-29T04:46:34;101465.18;;;20.13;61.89
31331;BME280;34067;39.548;-76.088;2023-05-29T04:49:02;101463.51;;;20.49;62.48
31331;BME280;34067;39.548;-76.088;2023-05-29T04:51:30;101462.51;;;21.40;60.37
31331;BME280;34067;39.548;-76.088;2023-05-29T04:53:58;101457.51;;;20.74;60.89
31331;BME280;34067;39.548;-76.088;2023-05-29T04:56:26;101456.92;;;20.70;62.20
31331;BME280;34067;39.548;-76.088;2023-05-29T04:58:53;101456.43;;;19.68;66.92
31331;BME280;34067;39.548;-76.088;2023-05-29T05:03:16;101458.09;;;20.00;67.84
31331;BME280;34067;39.548;-76.088;2023-05-29T05:05:44;101456.18;;;20.32;64.52
31331;BME280;34067;39.548;-76.088;2023-05-29T05:08:12;101446.59;;;20.64;65.78
31331;BME280;34067;39.548;-76.088;2023-05-29T05:10:40;101445.23;;;20.22;66.32
31331;BME280;34067;39.548;-76.088;2023-05-29T05:13:08;101444.75;;;20.42;68.23
31331;BME280;34067;39.548;-76.088;2023-05-29T05:15:35;101440.67;;;20.19;66.64
31331;BME280;34067;39.548;-76.088;2023-05-29T05:18:04;101434.09;;;19.89;67.25
31331;BME280;34067;39.548;-76.088;2023-05-29T05:20:31;101427.08;;;20.15;70.51
31331;BME280;34067;39.548;-76.088;2023-05-29T05:22:59;101431.96;;;19.24;70.03
31331;BME280;34067;39.548;-76.088;2023-05-29T05:25:27;101431.49;;;18.65;73.08
31331;BME280;34067;39.548;-76.088;2023-05-29T05:27:55;101418.68;;;18.88;71.07
31331;BME280;34067;39.548;-76.088;2023-05-29T05:30:23;101413.75;;;19.22;70.08
31331;BME280;34067;39.548;-76.088;2023-05-29T05:32:51;101407.41;;;19.69;70.29
31331;BME280;34067;39.548;-76.088;2023-05-29T05:35:19;101400.55;;;18.90;69.91
31331;BME280;34067;39.548;-76.088;2023-05-29T05:37:47;101398.86;;;19.00;71.78
31331;BME280;34067;39.548;-76.088;2023-05-29T05:40:15;101392.91;;;19.53;72.73
31331;BME280;34067;39.548;-76.088;2023-05-29T05:42:44;101386.98;;;19.04;74.52
31331;BME280;34067;39.548;-76.088;2023-05-29T05:45:12;101383.08;;;19.67;73.15
31331;BME280;34067;39.548;-76.088;2023-05-29T05:47:40;101382.84;;;19.92;73.03
31331;BME280;34067;39.548;-76.088;2023-05-29T05:50:09;101380.19;;;19.87;72.78
31331;BME280;34067;39.548;-76.088;2023-05-29T05:52:37;101381.26;;;20.25;71.97
31331;BME280;34067;39.548;-76.088;2023-05-29T05:55:05;101380.57;;;19.47;74.08
31331;BME280;34067;39.548;-76.088;2023-05-29T05:57:33;101378.46;;;19.21;76.38
31331;BME280;34067;39.548;-76.088;2023-05-29T06:00:02;101378.88;;;19.41;81.10
31331;BME280;34067;39.548;-76.088;2023-05-29T06:02:29;101385.54;;;16.82;92.42
31331;BME280;34067;39.548;-76.088;2023-05-29T06:04:57;101385.71;;;17.07;96.41
31331;BME280;34067;39.548;-76.088;2023-05-29T06:07:25;101393.26;;;17.29;100.00
31331;BME280;34067;39.548;-76.088;2023-05-29T06:09:54;101400.44;;;14.77;100.00
31331;BME280;34067;39.548;-76.088;2023-05-29T06:12:21;101402.27;;;16.22;100.00
31331;BME280;34067;39.548;-76.088;2023-05-29T06:14:49;101398.03;;;16.51;100.00
31331;BME280;34067;39.548;-76.088;2023-05-29T06:17:18;101398.98;;;15.35;100.00
31331;BME280;34067;39.548;-76.088;2023-05-29T06:19:45;101394.14;;;15.39;100.00
31331;BME280;34067;39.548;-76.088;2023-05-29T06:22:14;101394.22;;;16.50;100.00
31331;BME280;34067;39.548;-76.088;2023-05-29T06:24:42;101389.89;;;15.93;100.00
31331;BME280;34067;39.548;-76.088;2023-05-29T06:27:10;101389.05;;;16.90;98.41
31331;BME280;34067;39.548;-76.088;2023-05-29T06:29:38;101388.51;;;17.02;98.13
31331;BME280;34067;39.548;-76.088;2023-05-29T06:32:05;101381.26;;;17.91;89.02
31331;BME280;34067;39.548;-76.088;2023-05-29T06:34:33;101380.62;;;17.71;85.91
31331;BME280;34067;39.548;-76.088;2023-05-29T06:37:01;101380.09;;;17.37;85.12
31331;BME280;34067;39.548;-76.088;2023-05-29T06:39:29;101382.99;;;17.39;84.82
31331;BME280;34067;39.548;-76.088;2023-05-29T06:41:57;101379.97;;;17.65;86.69
31331;BME280;34067;39.548;-76.088;2023-05-29T06:44:25;101377.15;;;18.21;81.65
31331;BME280;34067;39.548;-76.088;2023-05-29T06:46:54;101376.88;;;17.44;84.82
31331;BME280;34067;39.548;-76.088;2023-05-29T06:49:22;101372.11;;;16.79;86.41
31331;BME280;34067;39.548;-76.088;2023-05-29T06:51:50;101368.96;;;17.86;82.76
31331;BME280;34067;39.548;-76.088;2023-05-29T06:54:18;101369.99;;;17.99;78.77
31331;BME280;34067;39.548;-76.088;2023-05-29T06:56:46;101369.32;;;18.23;78.84
31331;BME280;34067;39.548;-76.088;2023-05-29T06:59:14;101368.50;;;18.21;80.62
31331;BME280;34067;39.548;-76.088;2023-05-29T07:01:41;101372.48;;;16.87;85.39
31331;BME280;34067;39.548;-76.088;2023-05-29T07:04:10;101371.16;;;17.68;83.66
31331;BME280;34067;39.548;-76.088;2023-05-29T07:06:39;101371.61;;;16.94;86.42
31331;BME280;34067;39.548;-76.088;2023-05-29T07:09:06;101368.47;;;16.21;92.17
31331;BME280;34067;39.548;-76.088;2023-05-29T07:11:34;101362.62;;;17.32;91.94
31331;BME280;34067;39.548;-76.088;2023-05-29T07:14:02;101371.64;;;15.68;100.00
31331;BME280;34067;39.548;-76.088;2023-05-29T07:16:30;101365.84;;;15.03;100.00
31331;BME280;34067;39.548;-76.088;2023-05-29T07:18:58;101366.02;;;15.19;100.00
31331;BME280;34067;39.548;-76.088;2023-05-29T07:21:26;101361.11;;;16.10;97.11
31331;BME280;34067;39.548;-76.088;2023-05-29T07:23:54;101359.49;;;16.20;94.72
31331;BME280;34067;39.548;-76.088;2023-05-29T07:26:22;101365.23;;;16.11;100.00
31331;BME280;34067;39.548;-76.088;2023-05-29T07:28:50;101362.19;;;15.42;100.00
31331;BME280;34067;39.548;-76.088;2023-05-29T07:31:18;101358.35;;;16.53;100.00
31331;BME280;34067;39.548;-76.088;2023-05-29T07:33:46;101352.91;;;16.81;100.00
31331;BME280;34067;39.548;-76.088;2023-05-29T07:36:15;101352.81;;;15.99;100.00
31331;BME280;34067;39.548;-76.088;2023-05-29T07:38:44;101350.47;;;15.24;100.00
31331;BME280;34067;39.548;-76.088;2023-05-29T07:41:12;101350.85;;;15.97;100.00
31331;BME280;34067;39.548;-76.088;2023-05-29T07:43:42;101351.94;;;14.50;100.00
31331;BME280;34067;39.548;-76.088;2023-05-29T07:46:10;101351.10;;;15.56;100.00
31331;BME280;34067;39.548;-76.088;2023-05-29T07:48:38;101347.87;;;15.51;100.00
31331;BME280;34067;39.548;-76.088;2023-05-29T07:51:07;101344.91;;;16.60;100.00
31331;BME280;34067;39.548;-76.088;2023-05-29T07:53:35;101343.93;;;16.72;100.00
31331;BME280;34067;39.548;-76.088;2023-05-29T07:56:03;101348.97;;;15.84;100.00
31331;BME280;34067;39.548;-76.088;2023-05-29T07:58:31;101344.18;;;16.30;100.00
31331;BME280;34067;39.548;-76.088;2023-05-29T08:00:58;101339.23;;;15.70;100.00
31331;BME280;34067;39.548;-76.088;2023-05-29T08:03:27;101339.01;;;16.34;100.00
31331;BME280;34067;39.548;-76.088;2023-05-29T08:05:55;101337.07;;;16.99;100.00
31331;BME280;34067;39.548;-76.088;2023-05-29T08:08:23;101340.56;;;13.83;100.00
31331;BME280;34067;39.548;-76.088;2023-05-29T08:10:52;101338.38;;;14.75;100.00
31331;BME280;34067;39.548;-76.088;2023-05-29T08:13:19;101338.78;;;14.50;100.00
31331;BME280;34067;39.548;-76.088;2023-05-29T08:15:47;101332.55;;;14.40;100.00
31331;BME280;34067;39.548;-76.088;2023-05-29T08:18:15;101328.60;;;13.89;100.00
31331;BME280;34067;39.548;-76.088;2023-05-29T08:20:43;101325.84;;;15.30;100.00
31331;BME280;34067;39.548;-76.088;2023-05-29T08:23:11;101325.64;;;14.22;100.00
31331;BME280;34067;39.548;-76.088;2023-05-29T08:25:39;101321.07;;;13.44;100.00
31331;BME280;34067;39.548;-76.088;2023-05-29T08:28:07;101322.35;;;13.12;100.00
31331;BME280;34067;39.548;-76.088;2023-05-29T08:30:35;101324.14;;;14.42;100.00
31331;BME280;34067;39.548;-76.088;2023-05-29T08:33:03;101326.88;;;15.00;100.00
31331;BME280;34067;39.548;-76.088;2023-05-29T08:35:31;101333.02;;;15.54;100.00
31331;BME280;34067;39.548;-76.088;2023-05-29T08:37:59;101332.04;;;16.74;98.37
31331;BME280;34067;39.548;-76.088;2023-05-29T08:40:26;101326.96;;;16.81;94.19
31331;BME280;34067;39.548;-76.088;2023-05-29T08:42:59;101335.48;;;15.75;96.66
31331;BME280;34067;39.548;-76.088;2023-05-29T08:45:29;101336.55;;;15.83;99.78
31331;BME280;34067;39.548;-76.088;2023-05-29T08:48:01;101339.67;;;15.43;98.92
31331;BME280;34067;39.548;-76.088;2023-05-29T08:50:30;101340.91;;;15.86;100.00
31331;BME280;34067;39.548;-76.088;2023-05-29T08:52:58;101339.22;;;16.14;97.72
31331;BME280;34067;39.548;-76.088;2023-05-29T08:55:26;101342.82;;;16.18;100.00
31331;BME280;34067;39.548;-76.088;2023-05-29T08:57:54;101342.54;;;16.24;98.89
31331;BME280;34067;39.548;-76.088;2023-05-29T09:00:23;101344.96;;;15.04;100.00
31331;BME280;34067;39.548;-76.088;2023-05-29T09:02:51;101339.12;;;15.19;100.00
31331;BME280;34067;39.548;-76.088;2023-05-29T09:05:19;101342.43;;;15.47;100.00
31331;BME280;34067;39.548;-76.088;2023-05-29T09:07:47;101346.08;;;14.92;100.00
31331;BME280;34067;39.548;-76.088;2023-05-29T09:10:15;101349.00;;;16.01;100.00
31331;BME280;34067;39.548;-76.088;2023-05-29T09:12:43;101351.49;;;15.36;100.00
31331;BME280;34067;39.548;-76.088;2023-05-29T09:15:18;101352.20;;;14.85;100.00
31331;BME280;34067;39.548;-76.088;2023-05-29T09:17:50;101350.86;;;15.13;100.00
31331;BME280;34067;39.548;-76.088;2023-05-29T09:20:20;101345.53;;;15.78;100.00
31331;BME280;34067;39.548;-76.088;2023-05-29T09:22:54;101350.05;;;16.03;99.08
31331;BME280;34067;39.548;-76.088;2023-05-29T09:25:23;101349.55;;;15.90;90.27
31331;BME280;34067;39.548;-76.088;2023-05-29T09:27:54;101355.80;;;14.74;94.28
31331;BME280;34067;39.548;-76.088;2023-05-29T09:30:40;101357.31;;;15.66;93.76
31331;BME280;34067;39.548;-76.088;2023-05-29T09:33:09;101356.21;;;16.14;95.78
31331;BME280;34067;39.548;-76.088;2023-05-29T09:35:39;101357.07;;;15.37;100.00
31331;BME280;34067;39.548;-76.088;2023-05-29T09:38:10;101355.94;;;14.94;100.00
31331;BME280;34067;39.548;-76.088;2023-05-29T09:40:39;101362.20;;;15.34;100.00
31331;BME280;34067;39.548;-76.088;2023-05-29T09:43:11;101365.82;;;15.87;99.92
31331;BME280;34067;39.548;-76.088;2023-05-29T09:45:40;101357.94;;;17.50;88.63
31331;BME280;34067;39.548;-76.088;2023-05-29T09:48:12;101361.17;;;17.73;88.92
31331;BME280;34067;39.548;-76.088;2023-05-29T09:50:40;101359.61;;;16.29;91.99
31331;BME280;34067;39.548;-76.088;2023-05-29T09:53:16;101366.96;;;17.21;87.45
31331;BME280;34067;39.548;-76.088;2023-05-29T09:55:45;101369.20;;;16.90;86.54
31331;BME280;34067;39.548;-76.088;2023-05-29T09:58:14;101369.23;;;17.24;84.78
31331;BME280;34067;39.548;-76.088;2023-05-29T10:00:42;101367.75;;;15.83;90.51
31331;BME280;34067;39.548;-76.088;2023-05-29T10:03:11;101367.50;;;17.01;86.93
31331;BME280;34067;39.548;-76.088;2023-05-29T10:05:40;101370.53;;;16.88;89.63
31331;BME280;34067;39.548;-76.088;2023-05-29T10:08:11;101375.96;;;16.77;89.77
31331;BME280;34067;39.548;-76.088;2023-05-29T10:10:42;101382.04;;;17.57;94.25
31331;BME280;34067;39.548;-76.088;2023-05-29T10:13:11;101381.48;;;17.70;88.04
31331;BME280;34067;39.548;-76.088;2023-05-29T10:15:42;101375.37;;;17.50;89.62
31331;BME280;34067;39.548;-76.088;2023-05-29T10:18:22;101378.97;;;16.77;89.31
31331;BME280;34067;39.548;-76.088;2023-05-29T10:20:53;101379.96;;;17.73;83.97
31331;BME280;34067;39.548;-76.088;2023-05-29T10:23:24;101384.63;;;17.06;85.35
31331;BME280;34067;39.548;-76.088;2023-05-29T10:25:53;101389.43;;;17.89;85.57
31331;BME280;34067;39.548;-76.088;2023-05-29T10:28:22;101389.99;;;17.36;88.40
31331;BME280;34067;39.548;-76.088;2023-05-29T10:30:53;101391.37;;;17.02;86.40
31331;BME280;34067;39.548;-76.088;2023-05-29T10:33:37;101392.35;;;16.79;88.17
31331;BME280;34067;39.548;-76.088;2023-05-29T10:36:14;101389.53;;;16.15;90.53
31331;BME280;34067;39.548;-76.088;2023-05-29T10:38:45;101385.85;;;16.02;87.29
31331;BME280;34067;39.548;-76.088;2023-05-29T10:41:31;101379.01;;;16.40;90.94
31331;BME280;34067;39.548;-76.088;2023-05-29T10:44:00;101381.00;;;18.18;84.81
31331;BME280;34067;39.548;-76.088;2023-05-29T10:47:03;101383.62;;;17.18;88.13
31331;BME280;34067;39.548;-76.088;2023-05-29T10:49:31;101378.69;;;17.05;90.50
31331;BME280;34067;39.548;-76.088;2023-05-29T10:51:59;101377.11;;;16.50;95.16
31331;BME280;34067;39.548;-76.088;2023-05-29T10:54:27;101381.76;;;16.68;99.21
31331;BME280;34067;39.548;-76.088;2023-05-29T10:57:08;101383.78;;;15.39;100.00
31331;BME280;34067;39.548;-76.088;2023-05-29T10:59:37;101377.60;;;17.84;97.64
31331;BME280;34067;39.548;-76.088;2023-05-29T11:02:04;101378.96;;;15.85;100.00
31331;BME280;34067;39.548;-76.088;2023-05-29T11:04:32;101381.56;;;16.10;100.00
31331;BME280;34067;39.548;-76.088;2023-05-29T11:07:00;101381.95;;;15.50;100.00
31331;BME280;34067;39.548;-76.088;2023-05-29T11:09:30;101378.37;;;14.81;100.00
31331;BME280;34067;39.548;-76.088;2023-05-29T11:12:16;101381.42;;;14.40;100.00
31331;BME280;34067;39.548;-76.088;2023-05-29T11:14:46;101386.14;;;15.60;100.00
31331;BME280;34067;39.548;-76.088;2023-05-29T11:17:31;101388.03;;;17.23;93.21
31331;BME280;34067;39.548;-76.088;2023-05-29T11:20:01;101393.10;;;17.70;89.65
31331;BME280;34067;39.548;-76.088;2023-05-29T11:22:44;101388.41;;;18.05;85.49
31331;BME280;34067;39.548;-76.088;2023-05-29T11:25:16;101392.27;;;18.27;82.28
31331;BME280;34067;39.548;-76.088;2023-05-29T11:27:44;101389.66;;;18.87;78.64
31331;BME280;34067;39.548;-76.088;2023-05-29T11:30:13;101384.52;;;19.14;76.66
31331;BME280;34067;39.548;-76.088;2023-05-29T11:32:45;101381.88;;;18.97;78.18
31331;BME280;34067;39.548;-76.088;2023-05-29T11:35:13;101389.40;;;17.97;78.71
31331;BME280;34067;39.548;-76.088;2023-05-29T11:37:45;101386.59;;;19.32;79.13
31331;BME280;34067;39.548;-76.088;2023-05-29T11:40:14;101390.33;;;19.08;78.23
31331;BME280;34067;39.548;-76.088;2023-05-29T11:42:43;101386.87;;;19.70;74.34
31331;BME280;34067;39.548;-76.088;2023-05-29T11:45:13;101386.16;;;18.96;76.99
31331;BME280;34067;39.548;-76.088;2023-05-29T11:47:58;101377.83;;;19.28;75.05
31331;BME280;34067;39.548;-76.088;2023-05-29T11:50:28;101382.26;;;19.04;77.09
31331;BME280;34067;39.548;-76.088;2023-05-29T11:52:58;101380.04;;;19.55;74.01
31331;BME280;34067;39.548;-76.088;2023-05-29T11:55:27;101386.17;;;19.82;71.06
31331;BME280;34067;39.548;-76.088;2023-05-29T11:57:58;101389.68;;;20.74;69.74
31331;BME280;34067;39.548;-76.088;2023-05-29T12:00:29;101388.76;;;20.71;67.48
31331;BME280;34067;39.548;-76.088;2023-05-29T12:02:59;101389.20;;;21.05;65.80
31331;BME280;34067;39.548;-76.088;2023-05-29T12:05:27;101395.50;;;20.69;64.81
31331;BME280;34067;39.548;-76.088;2023-05-29T12:07:55;101392.69;;;20.88;64.19
31331;BME280;34067;39.548;-76.088;2023-05-29T12:10:24;101392.83;;;21.56;65.26
31331;BME280;34067;39.548;-76.088;2023-05-29T12:12:53;101391.40;;;21.31;65.16
31331;BME280;34067;39.548;-76.088;2023-05-29T12:15:21;101394.12;;;21.34;65.34
31331;BME280;34067;39.548;-76.088;2023-05-29T12:17:50;101395.18;;;21.40;68.91
31331;BME280;34067;39.548;-76.088;2023-05-29T12:20:23;101396.09;;;21.08;69.17
31331;BME280;34067;39.548;-76.088;2023-05-29T12:22:51;101395.06;;;20.83;66.65
31331;BME280;34067;39.548;-76.088;2023-05-29T12:25:20;101395.43;;;21.00;64.99
31331;BME280;34067;39.548;-76.088;2023-05-29T12:27:49;101392.07;;;20.99;65.29
31331;BME280;34067;39.548;-76.088;2023-05-29T12:30:21;101388.86;;;21.17;65.30
31331;BME280;34067;39.548;-76.088;2023-05-29T12:32:51;101385.72;;;20.96;66.67
31331;BME280;34067;39.548;-76.088;2023-05-29T12:35:21;101382.33;;;21.52;65.94
31331;BME280;34067;39.548;-76.088;2023-05-29T12:37:51;101383.68;;;21.51;65.01
31331;BME280;34067;39.548;-76.088;2023-05-29T12:40:21;101390.95;;;21.62;64.64